Time;durP1;ratioP1;P1;durP2;ratioP2;P2;SDS_P1;SDS_P2;PMS_P1;PMS_P2;Temp;Humidity;BMP_temperature;BMP_pressure;BME280_temperature;BME280_humidity;BME280_pressure;Samples;Min_cycle;Max_cycle;Signal;HPM_P1;HPM_P2
2022/07/01 00:01:30;;;;;;;;;;;25.70;96.30;;;;;;5064566;28;20108;-49
2022/07/01 00:03:56;;;;;;;;;;;25.80;96.40;;;;;;5064847;28;20100;-48
2022/07/01 00:06:22;;;;;;;;;;;25.80;96.50;;;;;;5065271;28;19909;-52
2022/07/01 00:08:48;;;;;;;;;;;25.80;96.50;;;;;;5064816;28;19916;-53
2022/07/01 00:11:15;;;;;;;;;;;25.70;96.50;;;;;;5065305;28;19908;-54
2022/07/01 00:13:41;;;;;;;;;;;25.70;96.50;;;;;;5064750;28;19967;-55
2022/07/01 00:16:07;;;;;;;;;;;25.70;96.50;;;;;;5064784;28;19915;-56
2022/07/01 00:18:33;;;;;;;;;;;25.70;96.60;;;;;;5064742;28;19927;-53
2022/07/01 00:21:02;;;;;;;;;;;25.70;96.60;;;;;;5064989;28;19950;-53
2022/07/01 00:23:28;;;;;;;;;;;25.70;96.60;;;;;;5064574;28;19901;-53
2022/07/01 00:25:55;;;;;;;;;;;25.70;96.60;;;;;;5065070;28;19916;-53
2022/07/01 00:28:21;;;;;;;;;;;25.70;96.60;;;;;;5064469;28;19942;-56
2022/07/01 00:30:47;;;;;;;;;;;25.70;96.60;;;;;;5064365;28;20081;-55
2022/07/01 00:33:13;;;;;;;;;;;25.70;96.50;;;;;;5064457;28;19908;-53
2022/07/01 00:35:40;;;;;;;;;;;25.70;96.60;;;;;;5064369;28;19909;-54
2022/07/01 00:38:06;;;;;;;;;;;25.70;96.60;;;;;;5064202;28;19904;-56
2022/07/01 00:40:32;;;;;;;;;;;25.70;96.60;;;;;;5064090;28;19909;-54
2022/07/01 00:42:58;;;;;;;;;;;25.70;96.60;;;;;;5064327;28;20074;-55
2022/07/01 00:45:24;;;;;;;;;;;25.70;96.60;;;;;;5064108;28;20177;-57
2022/07/01 00:47:50;;;;;;;;;;;25.60;96.60;;;;;;5064382;28;19908;-50
2022/07/01 00:50:17;;;;;;;;;;;25.60;96.60;;;;;;5064443;28;19909;-52
2022/07/01 00:52:43;;;;;;;;;;;25.60;96.60;;;;;;5064035;28;19901;-51
2022/07/01 00:55:11;;;;;;;;;;;25.60;96.60;;;;;;5064161;28;19909;-54
2022/07/01 00:57:37;;;;;;;;;;;25.60;96.50;;;;;;5063989;28;20200;-48
2022/07/01 01:00:05;;;;;;;;;;;25.60;96.50;;;;;;5063612;28;20123;-52
2022/07/01 01:02:31;;;;;;;;;;;25.60;96.50;;;;;;5064024;28;19974;-50
2022/07/01 01:04:57;;;;;;;;;;;25.60;96.50;;;;;;5064035;28;20101;-52
2022/07/01 01:07:23;;;;;;;;;;;25.60;96.60;;;;;;5063664;28;19908;-51
2022/07/01 01:09:50;;;;;;;;;;;25.50;96.70;;;;;;5063989;28;19949;-48
2022/07/01 01:12:17;;;;;;;;;;;25.50;96.80;;;;;;5063886;28;20208;-48
2022/07/01 01:14:47;;;;;;;;;;;25.50;96.80;;;;;;5063475;28;19908;-56
2022/07/01 01:17:13;;;;;;;;;;;25.40;96.80;;;;;;5063807;28;19981;-50
2022/07/01 01:19:43;;;;;;;;;;;25.40;96.90;;;;;;5063653;28;19916;-48
2022/07/01 01:22:09;;;;;;;;;;;25.40;96.80;;;;;;5063699;28;19900;-50
2022/07/01 01:24:36;;;;;;;;;;;25.40;96.80;;;;;;5064037;28;20184;-49
2022/07/01 01:27:04;;;;;;;;;;;25.40;96.90;;;;;;5063600;28;19966;-54
2022/07/01 01:29:30;;;;;;;;;;;25.30;96.90;;;;;;5063491;28;19908;-50
2022/07/01 01:31:56;;;;;;;;;;;25.40;97.00;;;;;;5063901;28;19901;-50
2022/07/01 01:34:22;;;;;;;;;;;25.30;97.00;;;;;;5063546;28;19932;-49
2022/07/01 01:36:48;;;;;;;;;;;25.30;97.00;;;;;;5063631;28;19900;-50
2022/07/01 01:41:40;;;;;;;;;;;25.30;97.10;;;;;;5063832;28;19932;-49
2022/07/01 01:44:06;;;;;;;;;;;25.30;97.10;;;;;;5063586;28;19905;-51
2022/07/01 01:46:32;;;;;;;;;;;25.30;97.20;;;;;;5063408;28;19901;-56
2022/07/01 01:48:59;;;;;;;;;;;25.20;97.10;;;;;;5063577;28;20133;-53
2022/07/01 01:51:25;;;;;;;;;;;25.20;97.20;;;;;;5064289;28;19908;-56
2022/07/01 01:53:51;;;;;;;;;;;25.20;97.20;;;;;;5067169;28;19946;-50
2022/07/01 01:56:17;;;;;;;;;;;25.20;97.20;;;;;;5067472;28;19908;-54
2022/07/01 01:58:44;;;;;;;;;;;25.20;97.10;;;;;;5067156;28;19942;-54
2022/07/01 02:01:13;;;;;;;;;;;25.20;97.10;;;;;;5067017;28;19916;-50
2022/07/01 02:03:40;;;;;;;;;;;25.30;97.20;;;;;;5067081;28;19900;-51
2022/07/01 02:06:07;;;;;;;;;;;25.20;97.20;;;;;;5067064;28;19909;-51
2022/07/01 02:08:33;;;;;;;;;;;25.20;97.20;;;;;;5066942;28;19967;-52
2022/07/01 02:10:59;;;;;;;;;;;25.20;97.20;;;;;;5067516;28;19908;-51
2022/07/01 02:13:26;;;;;;;;;;;25.20;97.20;;;;;;5066336;28;19905;-49
2022/07/01 02:15:52;;;;;;;;;;;25.20;97.20;;;;;;5067230;28;20193;-56
2022/07/01 02:18:18;;;;;;;;;;;25.20;97.20;;;;;;5066966;28;19904;-55
2022/07/01 02:20:44;;;;;;;;;;;25.20;97.20;;;;;;5067345;28;19909;-53
2022/07/01 02:23:10;;;;;;;;;;;25.20;97.10;;;;;;5067002;28;19900;-55
2022/07/01 02:25:36;;;;;;;;;;;25.20;97.10;;;;;;5067064;28;19909;-53
2022/07/01 02:28:03;;;;;;;;;;;25.20;97.00;;;;;;5066505;28;19940;-53
2022/07/01 02:30:30;;;;;;;;;;;25.30;97.00;;;;;;5066535;28;19908;-56
2022/07/01 02:32:56;;;;;;;;;;;25.30;96.90;;;;;;5066471;28;19943;-54
2022/07/01 02:35:23;;;;;;;;;;;25.30;96.80;;;;;;5066720;28;19908;-55
2022/07/01 02:37:49;;;;;;;;;;;25.30;96.80;;;;;;5066443;28;19911;-55
2022/07/01 02:40:15;;;;;;;;;;;25.30;96.70;;;;;;5066835;28;19909;-57
2022/07/01 02:42:41;;;;;;;;;;;25.30;96.80;;;;;;5066750;28;20210;-54
2022/07/01 02:45:10;;;;;;;;;;;25.30;96.70;;;;;;5066754;28;19915;-55
2022/07/01 02:47:37;;;;;;;;;;;25.30;96.70;;;;;;5066407;28;19972;-55
2022/07/01 02:50:04;;;;;;;;;;;25.30;96.70;;;;;;5066495;28;19909;-52
2022/07/01 02:52:30;;;;;;;;;;;25.30;96.70;;;;;;5066438;28;19967;-53
2022/07/01 02:54:56;;;;;;;;;;;25.30;96.60;;;;;;5066497;28;19972;-56
2022/07/01 02:57:22;;;;;;;;;;;25.30;96.60;;;;;;5066163;28;19901;-53
2022/07/01 02:59:50;;;;;;;;;;;25.30;96.60;;;;;;5066296;28;19908;-55
2022/07/01 03:02:17;;;;;;;;;;;25.30;96.60;;;;;;5065413;28;19959;-54
2022/07/01 03:04:44;;;;;;;;;;;25.30;96.60;;;;;;5066207;28;19976;-53
2022/07/01 03:07:12;;;;;;;;;;;25.30;96.60;;;;;;5066040;28;19944;-56
2022/07/01 03:09:39;;;;;;;;;;;25.30;96.60;;;;;;5065976;28;20074;-55
2022/07/01 03:12:24;;;;;;;;;;;25.30;96.60;;;;;;5065997;28;19908;-55
2022/07/01 03:14:54;;;;;;;;;;;25.30;96.60;;;;;;5065963;28;19905;-53
2022/07/01 03:17:21;;;;;;;;;;;25.30;96.60;;;;;;5065817;28;19912;-53
2022/07/01 03:19:47;;;;;;;;;;;25.30;96.60;;;;;;5066249;28;20070;-53
2022/07/01 03:22:13;;;;;;;;;;;25.30;96.60;;;;;;5065718;28;19905;-54
2022/07/01 03:24:39;;;;;;;;;;;25.30;96.50;;;;;;5066004;28;20181;-55
2022/07/01 03:27:05;;;;;;;;;;;25.30;96.50;;;;;;5065809;28;19905;-55
2022/07/01 03:29:32;;;;;;;;;;;25.30;96.50;;;;;;5065728;28;19911;-56
2022/07/01 03:31:58;;;;;;;;;;;25.30;96.60;;;;;;5065668;28;19909;-54
2022/07/01 03:34:24;;;;;;;;;;;25.20;96.50;;;;;;5065600;28;19905;-55
2022/07/01 03:36:50;;;;;;;;;;;25.30;96.50;;;;;;5065536;28;20262;-54
2022/07/01 03:39:16;;;;;;;;;;;25.30;96.50;;;;;;5065470;28;19904;-58
2022/07/01 03:41:42;;;;;;;;;;;25.20;96.50;;;;;;5065509;28;19905;-55
2022/07/01 03:44:08;;;;;;;;;;;25.30;96.50;;;;;;5065305;28;19901;-53
2022/07/01 03:46:35;;;;;;;;;;;25.30;96.50;;;;;;5065348;28;19905;-55
2022/07/01 03:49:02;;;;;;;;;;;25.30;96.50;;;;;;5065238;28;19904;-55
2022/07/01 03:51:28;;;;;;;;;;;25.20;96.40;;;;;;5065178;28;20139;-55
2022/07/01 03:56:41;;;;;;;;;;;25.30;96.50;;;;;;5065215;28;20228;-54
2022/07/01 03:59:07;;;;;;;;;;;25.30;96.40;;;;;;5064914;28;20157;-56
2022/07/01 04:01:34;;;;;;;;;;;25.20;96.40;;;;;;5065132;28;19924;-59
2022/07/01 04:04:00;;;;;;;;;;;25.20;96.30;;;;;;5065255;28;19904;-55
2022/07/01 04:06:27;;;;;;;;;;;25.20;96.40;;;;;;5064919;28;20219;-55
2022/07/01 04:08:53;;;;;;;;;;;25.20;96.40;;;;;;5064956;28;19928;-57
2022/07/01 04:11:19;;;;;;;;;;;25.20;96.40;;;;;;5065291;28;19908;-54
2022/07/01 04:13:50;;;;;;;;;;;25.20;96.30;;;;;;5064344;28;20193;-57
2022/07/01 04:16:16;;;;;;;;;;;25.20;96.30;;;;;;5065200;28;19907;-57
2022/07/01 04:18:43;;;;;;;;;;;25.20;96.40;;;;;;5064766;28;19959;-53
2022/07/01 04:23:53;;;;;;;;;;;25.20;96.50;;;;;;5064724;28;20027;-58
2022/07/01 04:26:20;;;;;;;;;;;25.10;96.40;;;;;;5065060;28;19967;-53
2022/07/01 04:28:47;;;;;;;;;;;25.10;96.40;;;;;;5064783;28;19976;-56
2022/07/01 04:31:13;;;;;;;;;;;25.20;96.50;;;;;;5065042;28;19908;-54
2022/07/01 04:33:39;;;;;;;;;;;25.10;96.40;;;;;;5064345;28;19979;-53
2022/07/01 04:36:05;;;;;;;;;;;25.10;96.30;;;;;;5064491;28;19900;-55
2022/07/01 04:38:31;;;;;;;;;;;25.10;96.30;;;;;;5064407;28;19920;-54
2022/07/01 04:43:42;;;;;;;;;;;25.10;96.30;;;;;;5064548;28;20180;-55
2022/07/01 04:46:08;;;;;;;;;;;25.10;96.20;;;;;;5064873;28;19901;-54
2022/07/01 04:48:34;;;;;;;;;;;25.10;96.20;;;;;;5064147;28;19909;-56
2022/07/01 04:51:00;;;;;;;;;;;25.10;96.30;;;;;;5064776;28;20228;-58
2022/07/01 04:53:26;;;;;;;;;;;25.10;96.20;;;;;;5064349;28;19944;-55
2022/07/01 04:55:52;;;;;;;;;;;25.10;96.20;;;;;;5064593;28;19901;-58
2022/07/01 04:58:18;;;;;;;;;;;25.10;96.10;;;;;;5064246;28;20113;-53
2022/07/01 05:00:44;;;;;;;;;;;25.00;96.20;;;;;;5064430;28;19908;-52
2022/07/01 05:03:10;;;;;;;;;;;25.00;96.20;;;;;;5064052;28;20096;-54
2022/07/01 05:05:36;;;;;;;;;;;25.10;96.20;;;;;;5064639;28;19905;-52
2022/07/01 05:08:03;;;;;;;;;;;25.10;96.20;;;;;;5064224;28;19968;-57
2022/07/01 05:10:29;;;;;;;;;;;25.00;96.20;;;;;;5064347;28;19905;-54
2022/07/01 05:12:55;;;;;;;;;;;25.00;96.20;;;;;;5064162;28;19912;-54
2022/07/01 05:15:21;;;;;;;;;;;25.00;96.20;;;;;;5064305;28;19904;-52
2022/07/01 05:23:16;;;;;;;;;;;25.00;96.20;;;;;;5063903;28;19983;-53
2022/07/01 05:25:42;;;;;;;;;;;25.00;96.20;;;;;;5065481;28;19909;-52
2022/07/01 05:28:08;;;;;;;;;;;25.00;96.20;;;;;;5068135;28;20101;-53
2022/07/01 05:30:34;;;;;;;;;;;24.90;96.20;;;;;;5068270;28;19955;-52
2022/07/01 05:33:00;;;;;;;;;;;25.00;96.20;;;;;;5068046;28;20197;-52
2022/07/01 05:35:26;;;;;;;;;;;24.90;96.20;;;;;;5068238;28;19969;-53
2022/07/01 05:37:52;;;;;;;;;;;24.90;96.20;;;;;;5067644;28;19915;-57
2022/07/01 05:40:18;;;;;;;;;;;24.90;96.20;;;;;;5068066;28;19912;-54
2022/07/01 05:42:45;;;;;;;;;;;24.90;96.50;;;;;;5067839;28;20101;-53
2022/07/01 05:45:11;;;;;;;;;;;24.90;96.20;;;;;;5067933;28;19904;-55
2022/07/01 05:47:37;;;;;;;;;;;24.90;96.20;;;;;;5067740;28;19912;-51
2022/07/01 05:50:03;;;;;;;;;;;24.90;96.30;;;;;;5066804;28;19904;-55
2022/07/01 05:52:29;;;;;;;;;;;24.90;96.20;;;;;;5066615;28;19912;-53
2022/07/01 05:54:55;;;;;;;;;;;24.90;96.30;;;;;;5067010;28;20289;-58
2022/07/01 05:57:21;;;;;;;;;;;24.90;96.20;;;;;;5066713;28;19968;-55
2022/07/01 05:59:48;;;;;;;;;;;24.90;96.20;;;;;;5060584;28;19904;-55
2022/07/01 06:02:14;;;;;;;;;;;24.90;96.20;;;;;;5066303;28;19923;-51
2022/07/01 06:04:43;;;;;;;;;;;24.90;96.20;;;;;;5066744;28;19911;-55
2022/07/01 06:07:10;;;;;;;;;;;24.90;96.30;;;;;;5066512;28;19904;-53
2022/07/01 06:09:36;;;;;;;;;;;24.90;96.30;;;;;;5066626;28;19951;-52
2022/07/01 06:12:03;;;;;;;;;;;24.90;96.30;;;;;;5066550;28;19976;-54
2022/07/01 06:14:29;;;;;;;;;;;24.90;96.30;;;;;;5066577;28;20173;-56
2022/07/01 06:16:56;;;;;;;;;;;24.90;96.30;;;;;;5066243;28;19919;-54
2022/07/01 06:19:22;;;;;;;;;;;24.90;96.40;;;;;;5066553;28;19915;-54
2022/07/01 06:21:48;;;;;;;;;;;24.90;96.40;;;;;;5066659;28;19932;-53
2022/07/01 06:24:14;;;;;;;;;;;24.90;96.40;;;;;;5066556;28;19904;-56
2022/07/01 06:26:40;;;;;;;;;;;24.90;96.40;;;;;;5066550;28;19912;-54
2022/07/01 06:29:07;;;;;;;;;;;24.90;96.40;;;;;;5066556;28;19904;-56
2022/07/01 06:31:33;;;;;;;;;;;24.90;96.50;;;;;;5066491;28;19911;-54
2022/07/01 06:34:00;;;;;;;;;;;24.90;96.50;;;;;;5066563;28;19909;-54
2022/07/01 06:36:26;;;;;;;;;;;24.90;96.50;;;;;;5066517;28;19946;-55
2022/07/01 06:38:52;;;;;;;;;;;24.90;96.50;;;;;;5065719;28;19983;-55
2022/07/01 06:41:27;;;;;;;;;;;24.90;96.50;;;;;;5067019;28;19943;-55
2022/07/01 06:43:54;;;;;;;;;;;24.90;96.50;;;;;;5066210;28;19959;-54
2022/07/01 06:46:20;;;;;;;;;;;24.90;96.50;;;;;;5066776;28;20081;-56
2022/07/01 06:48:46;;;;;;;;;;;24.90;96.50;;;;;;5066542;28;19904;-55
2022/07/01 06:51:12;;;;;;;;;;;24.90;96.50;;;;;;5066778;28;19904;-54
2022/07/01 06:53:39;;;;;;;;;;;24.90;96.50;;;;;;5065710;28;20248;-54
2022/07/01 06:56:05;;;;;;;;;;;24.90;96.50;;;;;;5066227;28;20124;-54
2022/07/01 06:58:31;;;;;;;;;;;24.90;96.50;;;;;;5066090;28;19909;-58
2022/07/01 07:01:00;;;;;;;;;;;24.90;96.60;;;;;;5066277;28;19991;-55
2022/07/01 07:03:27;;;;;;;;;;;24.90;96.60;;;;;;5066236;28;20186;-55
2022/07/01 07:05:53;;;;;;;;;;;24.90;96.50;;;;;;5066042;28;19940;-58
2022/07/01 07:08:19;;;;;;;;;;;24.90;96.50;;;;;;5066460;28;19917;-54
2022/07/01 07:10:45;;;;;;;;;;;24.90;96.50;;;;;;5066399;28;19904;-58
2022/07/01 07:13:12;;;;;;;;;;;24.90;96.50;;;;;;5065852;28;19905;-56
2022/07/01 07:15:41;;;;;;;;;;;24.90;96.50;;;;;;5066436;28;19923;-57
2022/07/01 07:18:07;;;;;;;;;;;24.90;96.40;;;;;;5065637;28;20138;-61
2022/07/01 07:20:34;;;;;;;;;;;24.90;96.40;;;;;;5066125;28;19951;-56
2022/07/01 07:23:00;;;;;;;;;;;24.90;96.40;;;;;;5066465;28;19904;-58
2022/07/01 07:25:27;;;;;;;;;;;24.90;96.40;;;;;;5066494;28;19904;-54
2022/07/01 07:27:53;;;;;;;;;;;24.90;96.30;;;;;;5066067;28;19954;-51
2022/07/01 07:30:19;;;;;;;;;;;24.90;96.30;;;;;;5066292;28;19904;-55
2022/07/01 07:32:46;;;;;;;;;;;24.90;96.30;;;;;;5065778;28;19984;-53
2022/07/01 07:35:12;;;;;;;;;;;24.90;96.50;;;;;;5065842;28;20116;-57
2022/07/01 07:37:39;;;;;;;;;;;24.90;96.20;;;;;;5065574;28;19938;-55
2022/07/01 07:40:07;;;;;;;;;;;24.90;96.30;;;;;;5065437;28;19984;-54
2022/07/01 07:42:33;;;;;;;;;;;24.90;96.30;;;;;;5065407;28;19936;-55
2022/07/01 07:45:01;;;;;;;;;;;24.90;96.30;;;;;;5065392;28;19905;-53
2022/07/01 07:47:27;;;;;;;;;;;24.90;96.30;;;;;;5065309;28;20238;-57
2022/07/01 07:49:53;;;;;;;;;;;24.90;96.30;;;;;;5065229;28;19908;-55
2022/07/01 07:52:19;;;;;;;;;;;24.90;96.30;;;;;;5065544;28;19905;-54
2022/07/01 07:54:45;;;;;;;;;;;24.90;96.30;;;;;;5065562;28;19904;-56
2022/07/01 07:57:11;;;;;;;;;;;24.90;96.30;;;;;;5065465;28;19912;-55
2022/07/01 07:59:38;;;;;;;;;;;24.90;96.20;;;;;;5065496;28;19908;-53
2022/07/01 08:02:04;;;;;;;;;;;24.90;96.20;;;;;;5064994;28;20299;-54
2022/07/01 08:04:30;;;;;;;;;;;24.90;96.30;;;;;;5065779;28;20140;-55
2022/07/01 08:06:56;;;;;;;;;;;24.90;96.30;;;;;;5065487;28;19911;-56
2022/07/01 08:09:22;;;;;;;;;;;24.90;96.30;;;;;;5064963;28;20227;-55
2022/07/01 08:11:48;;;;;;;;;;;24.90;96.30;;;;;;5064531;28;19935;-54
2022/07/01 08:14:15;;;;;;;;;;;24.90;96.30;;;;;;5064578;28;19943;-51
2022/07/01 08:16:41;;;;;;;;;;;24.90;96.30;;;;;;5064559;28;19904;-53
2022/07/01 08:19:07;;;;;;;;;;;24.90;96.30;;;;;;5064686;28;19904;-57
2022/07/01 08:21:33;;;;;;;;;;;24.90;96.30;;;;;;5065114;28;19976;-55
2022/07/01 08:24:00;;;;;;;;;;;24.90;96.30;;;;;;5065105;28;20219;-49
2022/07/01 08:26:26;;;;;;;;;;;24.90;96.40;;;;;;5065125;28;19909;-55
2022/07/01 08:28:52;;;;;;;;;;;24.90;96.40;;;;;;5065225;28;19901;-55
2022/07/01 08:31:18;;;;;;;;;;;24.90;96.40;;;;;;5065462;28;19939;-53
2022/07/01 08:33:44;;;;;;;;;;;24.90;96.40;;;;;;5064668;28;19909;-54
2022/07/01 08:36:10;;;;;;;;;;;24.90;96.30;;;;;;5065110;28;19905;-58
2022/07/01 08:38:37;;;;;;;;;;;24.90;96.40;;;;;;5064731;28;19908;-56
2022/07/01 08:41:04;;;;;;;;;;;24.90;96.40;;;;;;5065063;28;19904;-55
2022/07/01 08:43:30;;;;;;;;;;;24.90;96.40;;;;;;5064575;28;19905;-58
2022/07/01 08:45:58;;;;;;;;;;;24.90;96.30;;;;;;5065060;28;19904;-56
2022/07/01 08:48:25;;;;;;;;;;;24.90;96.30;;;;;;5064459;28;19912;-55
2022/07/01 08:50:51;;;;;;;;;;;24.90;96.30;;;;;;5064925;28;19909;-54
2022/07/01 08:53:17;;;;;;;;;;;24.80;96.30;;;;;;5064397;28;19971;-59
2022/07/01 08:58:28;;;;;;;;;;;24.90;96.20;;;;;;5064251;28;19924;-54
2022/07/01 09:01:12;;;;;;;;;;;24.90;96.30;;;;;;5063989;28;20216;-54
2022/07/01 09:03:38;;;;;;;;;;;24.90;96.30;;;;;;5064668;28;19909;-55
2022/07/01 09:06:10;;;;;;;;;;;24.90;96.30;;;;;;5064781;28;20049;-55
2022/07/01 09:08:37;;;;;;;;;;;24.90;96.30;;;;;;5064464;28;19976;-57
2022/07/01 09:11:13;;;;;;;;;;;24.90;96.30;;;;;;5063334;28;19901;-55
2022/07/01 09:13:39;;;;;;;;;;;24.90;96.20;;;;;;5064066;28;19909;-57
2022/07/01 09:16:13;;;;;;;;;;;24.90;96.20;;;;;;5064719;28;19928;-55
2022/07/01 09:18:39;;;;;;;;;;;24.90;96.20;;;;;;5064075;28;19916;-55
2022/07/01 09:21:08;;;;;;;;;;;24.80;96.20;;;;;;5064792;28;19905;-56
2022/07/01 09:23:35;;;;;;;;;;;24.90;96.20;;;;;;5064160;28;20101;-59
2022/07/01 09:26:01;;;;;;;;;;;24.90;96.20;;;;;;5064844;28;20223;-55
2022/07/01 09:28:27;;;;;;;;;;;24.90;96.10;;;;;;5063857;28;20193;-57
2022/07/01 09:30:55;;;;;;;;;;;24.90;96.10;;;;;;5064461;28;19904;-58
2022/07/01 09:33:23;;;;;;;;;;;24.90;96.10;;;;;;5064145;28;19908;-59
2022/07/01 09:35:50;;;;;;;;;;;24.90;96.10;;;;;;5064213;28;20125;-58
2022/07/01 09:38:17;;;;;;;;;;;24.90;96.10;;;;;;5064166;28;19913;-55
2022/07/01 09:40:53;;;;;;;;;;;24.90;96.10;;;;;;5064557;28;19900;-56
2022/07/01 09:43:19;;;;;;;;;;;24.90;96.00;;;;;;5064001;28;20219;-56
2022/07/01 09:45:49;;;;;;;;;;;24.90;96.00;;;;;;5063394;28;19967;-57
2022/07/01 09:48:16;;;;;;;;;;;24.90;96.00;;;;;;5063978;28;19904;-56
2022/07/01 09:50:42;;;;;;;;;;;24.90;96.00;;;;;;5064134;28;19975;-56
2022/07/01 09:53:08;;;;;;;;;;;24.90;96.00;;;;;;5064059;28;19905;-55
2022/07/01 09:55:34;;;;;;;;;;;24.90;96.00;;;;;;5064222;28;19950;-49
2022/07/01 09:58:00;;;;;;;;;;;24.90;96.00;;;;;;5063482;28;19915;-57
2022/07/01 10:00:27;;;;;;;;;;;24.90;96.00;;;;;;5063899;28;19904;-57
2022/07/01 10:02:54;;;;;;;;;;;24.90;96.00;;;;;;5063386;28;19987;-59
2022/07/01 10:05:23;;;;;;;;;;;24.90;96.00;;;;;;5063837;28;19908;-59
2022/07/01 10:07:58;;;;;;;;;;;24.90;95.90;;;;;;5063437;28;19905;-57
2022/07/01 10:10:36;;;;;;;;;;;24.90;95.90;;;;;;5064044;28;19936;-56
2022/07/01 10:13:03;;;;;;;;;;;24.90;95.90;;;;;;5065500;28;19946;-55
2022/07/01 10:15:29;;;;;;;;;;;25.00;95.90;;;;;;5067887;28;19934;-57
2022/07/01 10:17:56;;;;;;;;;;;24.90;95.90;;;;;;5067603;28;19936;-55
2022/07/01 10:20:26;;;;;;;;;;;24.90;95.90;;;;;;5067202;28;20252;-55
2022/07/01 10:23:03;;;;;;;;;;;25.00;95.90;;;;;;5067028;28;19905;-58
2022/07/01 10:25:48;;;;;;;;;;;24.90;95.90;;;;;;5067725;28;20181;-58
2022/07/01 10:28:15;;;;;;;;;;;24.90;95.90;;;;;;5067329;28;19905;-57
2022/07/01 10:30:51;;;;;;;;;;;24.90;95.90;;;;;;5067335;28;19955;-59
2022/07/01 10:33:33;;;;;;;;;;;24.90;95.90;;;;;;5067064;28;19905;-56
2022/07/01 10:36:07;;;;;;;;;;;24.90;96.00;;;;;;5067387;28;19905;-55
2022/07/01 10:38:33;;;;;;;;;;;24.90;96.00;;;;;;5066640;28;19913;-55
2022/07/01 10:41:17;;;;;;;;;;;24.90;96.00;;;;;;5067128;28;20173;-57
2022/07/01 10:43:48;;;;;;;;;;;24.90;96.00;;;;;;5066848;28;19912;-55
2022/07/01 10:46:34;;;;;;;;;;;24.90;96.00;;;;;;5067046;28;19940;-54
2022/07/01 10:49:00;;;;;;;;;;;25.00;96.00;;;;;;5066758;28;19936;-57
2022/07/01 10:51:59;;;;;;;;;;;24.90;96.10;;;;;;5067001;28;20093;-55
2022/07/01 10:54:38;;;;;;;;;;;24.90;96.10;;;;;;5043860;28;19930;-55
2022/07/01 10:57:24;;;;;;;;;;;24.90;96.10;;;;;;5066565;28;20003;-55
2022/07/01 10:59:54;;;;;;;;;;;24.90;96.10;;;;;;5059526;28;20140;-56
2022/07/01 11:02:27;;;;;;;;;;;24.90;96.20;;;;;;5066325;28;19999;-54
2022/07/01 11:04:58;;;;;;;;;;;24.90;96.20;;;;;;5066064;28;19905;-53
2022/07/01 11:07:25;;;;;;;;;;;24.90;96.10;;;;;;5066466;28;20142;-56
2022/07/01 11:09:52;;;;;;;;;;;24.90;96.20;;;;;;5066269;28;19904;-53
2022/07/01 11:12:20;;;;;;;;;;;24.90;96.20;;;;;;5066061;28;19980;-56
2022/07/01 11:14:46;;;;;;;;;;;24.90;96.20;;;;;;5066368;28;19963;-56
2022/07/01 11:17:12;;;;;;;;;;;24.90;96.30;;;;;;5066301;28;19911;-57
2022/07/01 11:19:38;;;;;;;;;;;24.90;96.40;;;;;;5066633;28;19909;-54
2022/07/01 11:22:05;;;;;;;;;;;24.90;96.40;;;;;;5066288;28;19947;-56
2022/07/01 11:24:32;;;;;;;;;;;24.90;96.40;;;;;;5065824;28;20121;-53
2022/07/01 11:27:06;;;;;;;;;;;24.90;96.40;;;;;;5066171;28;19932;-56
2022/07/01 11:29:33;;;;;;;;;;;24.90;96.40;;;;;;5065649;28;20230;-59
2022/07/01 11:32:00;;;;;;;;;;;24.90;96.30;;;;;;5065811;28;19904;-52
2022/07/01 11:34:29;;;;;;;;;;;24.90;96.30;;;;;;5065928;28;19905;-56
2022/07/01 11:39:43;;;;;;;;;;;24.90;96.30;;;;;;5065732;28;19914;-57
2022/07/01 11:42:11;;;;;;;;;;;24.90;96.20;;;;;;5065253;28;19911;-54
2022/07/01 11:44:39;;;;;;;;;;;24.90;96.20;;;;;;5066053;28;19950;-58
2022/07/01 11:47:06;;;;;;;;;;;24.90;96.10;;;;;;5065617;28;19936;-55
2022/07/01 11:49:32;;;;;;;;;;;25.00;96.10;;;;;;5065526;28;19904;-57
2022/07/01 11:52:00;;;;;;;;;;;25.00;96.10;;;;;;5065633;28;20183;-56
2022/07/01 11:54:26;;;;;;;;;;;25.00;96.10;;;;;;5065533;28;19911;-56
2022/07/01 11:56:52;;;;;;;;;;;25.00;96.10;;;;;;5065220;28;20197;-58
2022/07/01 11:59:19;;;;;;;;;;;25.00;96.10;;;;;;5065069;28;19905;-55
2022/07/01 12:01:53;;;;;;;;;;;25.00;96.10;;;;;;5064923;28;20081;-54
2022/07/01 12:04:20;;;;;;;;;;;25.00;96.10;;;;;;5065373;28;19901;-53
2022/07/01 12:06:46;;;;;;;;;;;25.00;96.10;;;;;;5065067;28;19924;-51
2022/07/01 12:09:14;;;;;;;;;;;25.00;96.10;;;;;;5065537;28;19935;-57
2022/07/01 12:11:43;;;;;;;;;;;25.00;96.10;;;;;;5065018;28;19928;-58
2022/07/01 12:14:09;;;;;;;;;;;25.10;96.10;;;;;;5065006;28;19901;-60
2022/07/01 12:16:39;;;;;;;;;;;25.10;96.10;;;;;;5064845;28;19946;-57
2022/07/01 12:19:05;;;;;;;;;;;25.10;96.10;;;;;;5064403;28;19905;-56
2022/07/01 12:21:46;;;;;;;;;;;25.10;96.10;;;;;;5064873;28;20133;-54
2022/07/01 12:24:13;;;;;;;;;;;25.10;96.10;;;;;;5064647;28;19943;-59
2022/07/01 12:26:48;;;;;;;;;;;25.10;96.00;;;;;;5064926;28;19904;-54
2022/07/01 12:29:14;;;;;;;;;;;25.10;96.00;;;;;;5064653;28;19983;-51
2022/07/01 12:31:41;;;;;;;;;;;25.10;96.10;;;;;;5064859;28;19919;-54
2022/07/01 12:34:08;;;;;;;;;;;25.10;96.00;;;;;;5064945;28;19901;-56
2022/07/01 12:36:34;;;;;;;;;;;25.10;95.90;;;;;;5064194;28;20228;-54
2022/07/01 12:39:01;;;;;;;;;;;25.10;95.90;;;;;;5064536;28;19905;-57
2022/07/01 12:41:27;;;;;;;;;;;25.20;96.00;;;;;;5064662;28;19947;-57
2022/07/01 12:43:54;;;;;;;;;;;25.20;96.00;;;;;;5064439;28;19907;-56
2022/07/01 12:46:26;;;;;;;;;;;25.20;96.00;;;;;;5065253;28;19908;-55
2022/07/01 12:48:52;;;;;;;;;;;25.20;95.90;;;;;;5064614;28;20020;-53
2022/07/01 12:51:19;;;;;;;;;;;25.20;96.00;;;;;;5064180;28;19940;-58
2022/07/01 12:53:45;;;;;;;;;;;25.20;96.00;;;;;;5064481;28;19905;-56
2022/07/01 12:56:21;;;;;;;;;;;25.20;95.90;;;;;;5064889;28;19905;-56
2022/07/01 12:58:48;;;;;;;;;;;25.30;95.90;;;;;;5064224;28;19909;-56
2022/07/01 13:01:14;;;;;;;;;;;25.30;96.00;;;;;;5064153;28;19951;-55
2022/07/01 13:03:41;;;;;;;;;;;25.30;96.00;;;;;;5064125;28;20198;-57
2022/07/01 13:06:07;;;;;;;;;;;25.30;96.00;;;;;;5064680;28;19967;-55
2022/07/01 13:08:33;;;;;;;;;;;25.30;95.90;;;;;;5064405;28;19905;-56
2022/07/01 13:10:59;;;;;;;;;;;25.40;96.00;;;;;;5064660;28;19905;-55
2022/07/01 13:13:25;;;;;;;;;;;25.40;96.00;;;;;;5064158;28;19909;-52
2022/07/01 13:15:51;;;;;;;;;;;25.40;95.90;;;;;;5065046;28;20112;-63
2022/07/01 13:18:17;;;;;;;;;;;25.40;95.90;;;;;;5064331;28;19909;-56
2022/07/01 13:20:45;;;;;;;;;;;25.40;95.80;;;;;;5064787;28;20177;-55
2022/07/01 13:23:12;;;;;;;;;;;25.50;95.90;;;;;;5064047;28;19912;-56
2022/07/01 13:25:39;;;;;;;;;;;25.50;95.90;;;;;;5064926;28;19904;-56
2022/07/01 13:28:05;;;;;;;;;;;25.50;95.80;;;;;;5064105;28;19904;-55
2022/07/01 13:30:32;;;;;;;;;;;25.50;95.90;;;;;;5064244;28;19904;-57
2022/07/01 13:32:58;;;;;;;;;;;25.50;95.80;;;;;;5064220;28;20002;-55
2022/07/01 13:35:26;;;;;;;;;;;25.50;95.80;;;;;;5063955;28;20135;-56
2022/07/01 13:37:52;;;;;;;;;;;25.50;95.70;;;;;;5063754;28;20105;-56
2022/07/01 13:40:19;;;;;;;;;;;25.60;95.80;;;;;;5064153;28;19905;-55
2022/07/01 13:42:45;;;;;;;;;;;25.60;95.80;;;;;;5063696;28;19955;-56
2022/07/01 13:45:13;;;;;;;;;;;25.60;95.80;;;;;;5063238;28;19913;-55
2022/07/01 13:47:39;;;;;;;;;;;25.60;95.80;;;;;;5066558;28;19905;-53
2022/07/01 13:50:05;;;;;;;;;;;25.60;95.80;;;;;;5067784;28;19905;-55
2022/07/01 13:52:31;;;;;;;;;;;25.60;95.80;;;;;;5068057;28;19904;-58
2022/07/01 13:54:58;;;;;;;;;;;25.60;95.90;;;;;;5068064;28;19905;-54
2022/07/01 13:57:24;;;;;;;;;;;25.60;95.80;;;;;;5068061;28;19905;-57
2022/07/01 13:59:52;;;;;;;;;;;25.70;95.90;;;;;;5067642;28;19951;-55
2022/07/01 14:02:18;;;;;;;;;;;25.70;95.90;;;;;;5067607;28;19917;-56
2022/07/01 14:04:45;;;;;;;;;;;25.70;95.80;;;;;;5067876;28;19905;-56
2022/07/01 14:07:11;;;;;;;;;;;25.70;95.70;;;;;;5067498;28;19905;-55
2022/07/01 14:09:40;;;;;;;;;;;25.70;95.80;;;;;;5067607;28;19912;-56
2022/07/01 14:12:06;;;;;;;;;;;25.70;95.80;;;;;;5067726;28;19905;-55
2022/07/01 14:14:32;;;;;;;;;;;25.70;95.90;;;;;;5067211;28;20208;-59
2022/07/01 14:16:59;;;;;;;;;;;25.80;95.80;;;;;;5067327;28;19924;-59
2022/07/01 14:19:26;;;;;;;;;;;25.80;95.90;;;;;;5067150;28;19909;-55
2022/07/01 14:21:52;;;;;;;;;;;25.80;95.90;;;;;;5067323;28;20099;-61
2022/07/01 14:24:18;;;;;;;;;;;25.90;95.90;;;;;;5066926;28;19915;-58
2022/07/01 14:26:44;;;;;;;;;;;25.90;95.90;;;;;;5067170;28;19904;-54
2022/07/01 14:29:11;;;;;;;;;;;25.90;95.90;;;;;;5066844;28;19901;-49
2022/07/01 14:31:37;;;;;;;;;;;25.90;95.80;;;;;;5067127;28;20093;-54
2022/07/01 14:34:03;;;;;;;;;;;25.90;95.80;;;;;;5066756;28;19908;-56
2022/07/01 14:36:29;;;;;;;;;;;26.00;96.00;;;;;;5066885;28;19905;-56
2022/07/01 14:38:55;;;;;;;;;;;26.00;95.60;;;;;;5066467;28;20193;-53